sensor_id;sensor_type;location;lat;lon;timestamp;pressure;altitude;pressure_sealevel;temperature;humidity
46045;BME280;31781;54.094;13.428;2024-02-26T00:02:08;100568.44;;;5.70;63.89
46045;BME280;31781;54.094;13.428;2024-02-26T00:08:11;100568.34;;;5.63;63.84
46045;BME280;31781;54.094;13.428;2024-02-26T00:14:13;100558.28;;;5.57;63.84
46045;BME280;31781;54.094;13.428;2024-02-26T00:20:14;100552.75;;;5.51;64.30
46045;BME280;31781;54.094;13.428;2024-02-26T00:26:17;100556.19;;;5.45;64.41
46045;BME280;31781;54.094;13.428;2024-02-26T00:32:19;100561.25;;;5.39;64.46
46045;BME280;31781;54.094;13.428;2024-02-26T00:38:21;100563.69;;;5.34;64.06
46045;BME280;31781;54.094;13.428;2024-02-26T00:44:24;100562.72;;;5.27;64.60
46045;BME280;31781;54.094;13.428;2024-02-26T00:50:26;100563.25;;;5.23;65.36
46045;BME280;31781;54.094;13.428;2024-02-26T00:56:27;100561.09;;;5.18;64.75
46045;BME280;31781;54.094;13.428;2024-02-26T01:02:30;100562.47;;;5.14;64.67
46045;BME280;31781;54.094;13.428;2024-02-26T01:08:32;100563.81;;;5.10;64.90
46045;BME280;31781;54.094;13.428;2024-02-26T01:14:33;100565.41;;;5.05;64.59
46045;BME280;31781;54.094;13.428;2024-02-26T01:20:37;100557.19;;;4.98;65.03
46045;BME280;31781;54.094;13.428;2024-02-26T01:26:38;100558.72;;;4.93;65.02
46045;BME280;31781;54.094;13.428;2024-02-26T01:32:40;100562.78;;;4.88;64.91
46045;BME280;31781;54.094;13.428;2024-02-26T01:38:43;100565.19;;;4.83;65.18
46045;BME280;31781;54.094;13.428;2024-02-26T01:44:45;100559.47;;;4.78;65.52
46045;BME280;31781;54.094;13.428;2024-02-26T01:50:46;100561.03;;;4.73;64.79
46045;BME280;31781;54.094;13.428;2024-02-26T01:56:49;100549.25;;;4.66;65.16
46045;BME280;31781;54.094;13.428;2024-02-26T02:02:51;100549.97;;;4.60;65.27
46045;BME280;31781;54.094;13.428;2024-02-26T02:08:54;100553.53;;;4.52;65.77
46045;BME280;31781;54.094;13.428;2024-02-26T02:14:57;100552.38;;;4.47;65.71
46045;BME280;31781;54.094;13.428;2024-02-26T02:21:01;100547.50;;;4.42;65.80
46045;BME280;31781;54.094;13.428;2024-02-26T02:27:03;100559.66;;;4.38;66.45
46045;BME280;31781;54.094;13.428;2024-02-26T02:33:05;100553.94;;;4.33;66.45
46045;BME280;31781;54.094;13.428;2024-02-26T02:39:08;100563.22;;;4.22;65.53
46045;BME280;31781;54.094;13.428;2024-02-26T02:45:10;100565.13;;;4.14;65.26
46045;BME280;31781;54.094;13.428;2024-02-26T02:51:12;100566.28;;;4.03;65.07
46045;BME280;31781;54.094;13.428;2024-02-26T02:57:15;100578.09;;;3.94;66.04
46045;BME280;31781;54.094;13.428;2024-02-26T03:03:16;100587.88;;;3.87;65.60
46045;BME280;31781;54.094;13.428;2024-02-26T03:09:18;100595.78;;;3.80;65.92
46045;BME280;31781;54.094;13.428;2024-02-26T03:15:21;100596.63;;;3.73;65.59
46045;BME280;31781;54.094;13.428;2024-02-26T03:21:24;100598.81;;;3.61;66.19
46045;BME280;31781;54.094;13.428;2024-02-26T03:27:26;100592.41;;;3.54;66.19
46045;BME280;31781;54.094;13.428;2024-02-26T03:33:29;100599.47;;;3.47;66.09
46045;BME280;31781;54.094;13.428;2024-02-26T03:39:31;100597.63;;;3.39;65.30
46045;BME280;31781;54.094;13.428;2024-02-26T03:45:33;100607.38;;;3.32;66.61
46045;BME280;31781;54.094;13.428;2024-02-26T03:51:36;100615.22;;;3.26;66.04
46045;BME280;31781;54.094;13.428;2024-02-26T03:57:38;100612.22;;;3.21;66.57
46045;BME280;31781;54.094;13.428;2024-02-26T04:03:40;100616.22;;;3.17;66.19
46045;BME280;31781;54.094;13.428;2024-02-26T04:09:43;100621.91;;;3.06;65.99
46045;BME280;31781;54.094;13.428;2024-02-26T04:15:44;100631.78;;;2.97;66.71
46045;BME280;31781;54.094;13.428;2024-02-26T04:21:46;100635.81;;;2.93;66.92
46045;BME280;31781;54.094;13.428;2024-02-26T04:27:49;100639.66;;;2.90;66.47
46045;BME280;31781;54.094;13.428;2024-02-26T04:33:51;100644.84;;;2.84;66.17
46045;BME280;31781;54.094;13.428;2024-02-26T04:39:52;100647.50;;;2.76;66.39
46045;BME280;31781;54.094;13.428;2024-02-26T04:45:55;100650.13;;;2.68;66.85
46045;BME280;31781;54.094;13.428;2024-02-26T04:51:57;100655.47;;;2.60;66.30
46045;BME280;31781;54.094;13.428;2024-02-26T04:57:59;100658.94;;;2.52;66.43
46045;BME280;31781;54.094;13.428;2024-02-26T05:04:02;100664.66;;;2.49;67.19
46045;BME280;31781;54.094;13.428;2024-02-26T05:10:04;100683.44;;;2.49;67.21
46045;BME280;31781;54.094;13.428;2024-02-26T05:16:06;100686.31;;;2.48;67.31
46045;BME280;31781;54.094;13.428;2024-02-26T05:22:09;100702.19;;;2.41;67.52
46045;BME280;31781;54.094;13.428;2024-02-26T05:28:11;100698.44;;;2.34;67.32
46045;BME280;31781;54.094;13.428;2024-02-26T05:34:12;100705.31;;;2.28;67.27
46045;BME280;31781;54.094;13.428;2024-02-26T05:40:16;100717.34;;;2.24;67.23
46045;BME280;31781;54.094;13.428;2024-02-26T05:46:18;100732.91;;;2.21;67.35
46045;BME280;31781;54.094;13.428;2024-02-26T05:52:20;100735.75;;;2.19;67.71
46045;BME280;31781;54.094;13.428;2024-02-26T05:58:30;100744.13;;;2.16;67.23
46045;BME280;31781;54.094;13.428;2024-02-26T06:04:32;100757.16;;;2.11;67.48
46045;BME280;31781;54.094;13.428;2024-02-26T06:10:33;100770.03;;;2.08;67.60
46045;BME280;31781;54.094;13.428;2024-02-26T06:16:37;100779.09;;;2.07;68.18
46045;BME280;31781;54.094;13.428;2024-02-26T06:22:39;100786.97;;;2.08;68.64
46045;BME280;31781;54.094;13.428;2024-02-26T06:28:41;100789.66;;;2.08;68.03
46045;BME280;31781;54.094;13.428;2024-02-26T06:34:44;100800.25;;;2.10;67.65
46045;BME280;31781;54.094;13.428;2024-02-26T06:40:46;100805.31;;;2.13;68.73
46045;BME280;31781;54.094;13.428;2024-02-26T06:46:48;100809.91;;;2.20;68.34
46045;BME280;31781;54.094;13.428;2024-02-26T06:52:50;100812.28;;;2.23;68.64
46045;BME280;31781;54.094;13.428;2024-02-26T06:58:52;100826.94;;;2.29;68.63
46045;BME280;31781;54.094;13.428;2024-02-26T07:04:54;100825.63;;;2.33;68.78
46045;BME280;31781;54.094;13.428;2024-02-26T07:10:57;100833.44;;;2.44;69.09
46045;BME280;31781;54.094;13.428;2024-02-26T07:16:58;100835.06;;;2.55;68.89
46045;BME280;31781;54.094;13.428;2024-02-26T07:23:00;100849.06;;;2.66;69.83
46045;BME280;31781;54.094;13.428;2024-02-26T07:29:03;100857.25;;;2.82;70.29
46045;BME280;31781;54.094;13.428;2024-02-26T07:35:05;100850.31;;;2.98;69.54
46045;BME280;31781;54.094;13.428;2024-02-26T07:41:07;100851.97;;;3.16;70.23
46045;BME280;31781;54.094;13.428;2024-02-26T07:47:10;100853.25;;;3.38;70.67
46045;BME280;31781;54.094;13.428;2024-02-26T07:53:13;100850.66;;;3.54;70.78
46045;BME280;31781;54.094;13.428;2024-02-26T07:59:14;100861.19;;;3.81;70.84
46045;BME280;31781;54.094;13.428;2024-02-26T08:05:17;100854.19;;;4.05;71.00
46045;BME280;31781;54.094;13.428;2024-02-26T08:11:19;100851.22;;;4.24;71.07
46045;BME280;31781;54.094;13.428;2024-02-26T08:17:21;100853.59;;;4.43;70.99
46045;BME280;31781;54.094;13.428;2024-02-26T08:23:24;100865.56;;;4.65;71.20
46045;BME280;31781;54.094;13.428;2024-02-26T08:29:26;100871.28;;;4.86;71.68
46045;BME280;31781;54.094;13.428;2024-02-26T08:35:28;100867.25;;;5.06;71.47
46045;BME280;31781;54.094;13.428;2024-02-26T08:41:31;100873.09;;;5.26;72.04
46045;BME280;31781;54.094;13.428;2024-02-26T08:47:32;100886.72;;;5.49;71.65
46045;BME280;31781;54.094;13.428;2024-02-26T08:53:35;100877.22;;;5.69;71.61
46045;BME280;31781;54.094;13.428;2024-02-26T08:59:45;100892.50;;;5.93;72.15
46045;BME280;31781;54.094;13.428;2024-02-26T09:05:47;100898.97;;;6.14;71.73
46045;BME280;31781;54.094;13.428;2024-02-26T09:11:49;100910.19;;;6.34;71.60
46045;BME280;31781;54.094;13.428;2024-02-26T09:17:52;100906.97;;;6.61;71.18
46045;BME280;31781;54.094;13.428;2024-02-26T09:23:54;100900.94;;;6.97;70.63
46045;BME280;31781;54.094;13.428;2024-02-26T09:29:56;100907.13;;;7.43;69.06
46045;BME280;31781;54.094;13.428;2024-02-26T09:35:59;100901.44;;;7.96;69.39
46045;BME280;31781;54.094;13.428;2024-02-26T09:42:04;100902.56;;;8.52;66.64
46045;BME280;31781;54.094;13.428;2024-02-26T09:48:08;100899.16;;;9.07;65.88
46045;BME280;31781;54.094;13.428;2024-02-26T09:54:16;100900.84;;;9.64;65.09
46045;BME280;31781;54.094;13.428;2024-02-26T10:00:19;100904.91;;;10.15;63.19
46045;BME280;31781;54.094;13.428;2024-02-26T10:06:22;100911.09;;;10.50;61.19
46045;BME280;31781;54.094;13.428;2024-02-26T10:12:26;100911.78;;;10.65;60.50
46045;BME280;31781;54.094;13.428;2024-02-26T10:18:28;100914.31;;;10.67;59.80
46045;BME280;31781;54.094;13.428;2024-02-26T10:24:59;100924.75;;;10.63;59.64
46045;BME280;31781;54.094;13.428;2024-02-26T10:31:03;100935.84;;;10.68;60.10
46045;BME280;31781;54.094;13.428;2024-02-26T10:37:05;100927.13;;;10.86;59.71
46045;BME280;31781;54.094;13.428;2024-02-26T10:43:07;100937.00;;;11.13;58.71
46045;BME280;31781;54.094;13.428;2024-02-26T10:49:14;100930.09;;;11.37;59.20
46045;BME280;31781;54.094;13.428;2024-02-26T10:55:16;100937.00;;;11.59;55.96
46045;BME280;31781;54.094;13.428;2024-02-26T11:01:18;100931.56;;;11.73;56.74
46045;BME280;31781;54.094;13.428;2024-02-26T11:07:22;100935.09;;;11.80;56.45
46045;BME280;31781;54.094;13.428;2024-02-26T11:13:27;100941.63;;;11.79;57.14
46045;BME280;31781;54.094;13.428;2024-02-26T11:19:30;100951.28;;;11.75;57.12
46045;BME280;31781;54.094;13.428;2024-02-26T11:25:39;100955.91;;;11.74;58.09
46045;BME280;31781;54.094;13.428;2024-02-26T11:31:41;100963.84;;;11.76;57.34
46045;BME280;31781;54.094;13.428;2024-02-26T11:37:51;100956.31;;;11.78;59.15
46045;BME280;31781;54.094;13.428;2024-02-26T11:43:58;100958.41;;;11.82;58.04
46045;BME280;31781;54.094;13.428;2024-02-26T11:50:35;100966.16;;;11.85;58.89
46045;BME280;31781;54.094;13.428;2024-02-26T11:56:40;100965.94;;;11.80;56.98
46045;BME280;31781;54.094;13.428;2024-02-26T12:02:46;100971.63;;;11.79;56.90
46045;BME280;31781;54.094;13.428;2024-02-26T12:08:48;100969.09;;;11.84;56.26
46045;BME280;31781;54.094;13.428;2024-02-26T12:14:52;100968.03;;;11.91;55.83
46045;BME280;31781;54.094;13.428;2024-02-26T12:20:59;100978.94;;;11.91;56.74
46045;BME280;31781;54.094;13.428;2024-02-26T12:27:01;100979.56;;;11.87;55.36
46045;BME280;31781;54.094;13.428;2024-02-26T12:33:04;100979.56;;;11.80;55.46
46045;BME280;31781;54.094;13.428;2024-02-26T12:39:07;100985.44;;;11.77;56.28
46045;BME280;31781;54.094;13.428;2024-02-26T12:45:10;100984.38;;;11.71;56.46
46045;BME280;31781;54.094;13.428;2024-02-26T12:51:14;100997.38;;;11.69;56.71
46045;BME280;31781;54.094;13.428;2024-02-26T12:57:19;101003.69;;;11.63;57.00
46045;BME280;31781;54.094;13.428;2024-02-26T13:03:22;101002.19;;;11.54;56.47
46045;BME280;31781;54.094;13.428;2024-02-26T13:09:24;101000.50;;;11.47;57.11
46045;BME280;31781;54.094;13.428;2024-02-26T13:15:28;101006.38;;;11.44;57.86
46045;BME280;31781;54.094;13.428;2024-02-26T13:21:30;101012.88;;;11.36;57.18
46045;BME280;31781;54.094;13.428;2024-02-26T13:27:32;101021.47;;;11.33;57.95
46045;BME280;31781;54.094;13.428;2024-02-26T13:33:35;101022.50;;;11.32;58.17
46045;BME280;31781;54.094;13.428;2024-02-26T13:39:38;101021.47;;;11.33;57.71
46045;BME280;31781;54.094;13.428;2024-02-26T13:45:43;101034.03;;;11.34;57.68
46045;BME280;31781;54.094;13.428;2024-02-26T13:51:46;101035.09;;;11.33;58.42
46045;BME280;31781;54.094;13.428;2024-02-26T13:57:48;101042.59;;;11.31;58.44
46045;BME280;31781;54.094;13.428;2024-02-26T14:03:49;101045.56;;;11.30;58.01
46045;BME280;31781;54.094;13.428;2024-02-26T14:09:52;101049.94;;;11.24;57.81
46045;BME280;31781;54.094;13.428;2024-02-26T14:15:54;101050.94;;;11.16;57.76
46045;BME280;31781;54.094;13.428;2024-02-26T14:21:56;101051.34;;;11.07;58.00
46045;BME280;31781;54.094;13.428;2024-02-26T14:27:59;101059.91;;;10.97;57.32
46045;BME280;31781;54.094;13.428;2024-02-26T14:34:01;101058.22;;;10.90;57.70
46045;BME280;31781;54.094;13.428;2024-02-26T14:40:03;101071.56;;;10.78;57.63
46045;BME280;31781;54.094;13.428;2024-02-26T14:46:06;101066.88;;;10.65;58.21
46045;BME280;31781;54.094;13.428;2024-02-26T14:52:07;101070.38;;;10.53;58.12
46045;BME280;31781;54.094;13.428;2024-02-26T14:58:09;101069.28;;;10.41;58.93
46045;BME280;31781;54.094;13.428;2024-02-26T15:04:12;101075.25;;;10.30;58.96
46045;BME280;31781;54.094;13.428;2024-02-26T15:10:14;101079.16;;;10.20;59.77
46045;BME280;31781;54.094;13.428;2024-02-26T15:16:19;101073.03;;;10.12;60.68
46045;BME280;31781;54.094;13.428;2024-02-26T15:22:22;101081.50;;;10.02;60.50
46045;BME280;31781;54.094;13.428;2024-02-26T15:28:24;101090.84;;;9.93;60.69
46045;BME280;31781;54.094;13.428;2024-02-26T15:34:25;101098.47;;;9.83;61.24
46045;BME280;31781;54.094;13.428;2024-02-26T15:40:29;101116.38;;;9.71;62.33
46045;BME280;31781;54.094;13.428;2024-02-26T15:46:30;101114.63;;;9.63;62.46
46045;BME280;31781;54.094;13.428;2024-02-26T15:52:32;101129.34;;;9.54;62.71
46045;BME280;31781;54.094;13.428;2024-02-26T15:58:35;101139.88;;;9.43;62.94
46045;BME280;31781;54.094;13.428;2024-02-26T16:04:36;101151.06;;;9.33;63.57
46045;BME280;31781;54.094;13.428;2024-02-26T16:10:38;101161.38;;;9.23;63.69
46045;BME280;31781;54.094;13.428;2024-02-26T16:16:56;101174.59;;;9.11;62.76
46045;BME280;31781;54.094;13.428;2024-02-26T16:23:00;101180.88;;;8.97;63.19
46045;BME280;31781;54.094;13.428;2024-02-26T16:29:02;101178.53;;;8.79;63.66
46045;BME280;31781;54.094;13.428;2024-02-26T16:35:05;101193.78;;;8.66;64.13
46045;BME280;31781;54.094;13.428;2024-02-26T16:41:07;101207.53;;;8.50;63.77
46045;BME280;31781;54.094;13.428;2024-02-26T16:47:09;101207.50;;;8.35;64.11
46045;BME280;31781;54.094;13.428;2024-02-26T16:53:12;101216.19;;;8.22;64.26
46045;BME280;31781;54.094;13.428;2024-02-26T16:59:14;101224.94;;;8.10;64.67
46045;BME280;31781;54.094;13.428;2024-02-26T17:05:16;101238.25;;;7.97;65.40
46045;BME280;31781;54.094;13.428;2024-02-26T17:11:19;101240.69;;;7.83;65.54
46045;BME280;31781;54.094;13.428;2024-02-26T17:17:21;101249.22;;;7.72;65.73
46045;BME280;31781;54.094;13.428;2024-02-26T17:23:22;101264.69;;;7.64;65.37
46045;BME280;31781;54.094;13.428;2024-02-26T17:29:26;101273.88;;;7.55;65.76
46045;BME280;31781;54.094;13.428;2024-02-26T17:35:28;101278.50;;;7.46;66.28
46045;BME280;31781;54.094;13.428;2024-02-26T17:41:30;101276.66;;;7.39;66.66
46045;BME280;31781;54.094;13.428;2024-02-26T17:47:33;101282.13;;;7.30;66.55
46045;BME280;31781;54.094;13.428;2024-02-26T17:53:35;101285.00;;;7.21;67.01
46045;BME280;31781;54.094;13.428;2024-02-26T17:59:37;101283.34;;;7.12;67.53
46045;BME280;31781;54.094;13.428;2024-02-26T18:05:40;101294.03;;;7.05;67.56
46045;BME280;31781;54.094;13.428;2024-02-26T18:11:43;101305.72;;;6.98;67.74
46045;BME280;31781;54.094;13.428;2024-02-26T18:17:44;101309.44;;;6.89;67.68
46045;BME280;31781;54.094;13.428;2024-02-26T18:23:48;101329.22;;;6.81;68.01
46045;BME280;31781;54.094;13.428;2024-02-26T18:29:51;101333.63;;;6.74;68.20
46045;BME280;31781;54.094;13.428;2024-02-26T18:35:53;101336.31;;;6.66;68.87
46045;BME280;31781;54.094;13.428;2024-02-26T18:41:56;101338.22;;;6.57;68.73
46045;BME280;31781;54.094;13.428;2024-02-26T18:47:58;101347.16;;;6.50;69.10
46045;BME280;31781;54.094;13.428;2024-02-26T18:54:00;101353.41;;;6.42;69.49
46045;BME280;31781;54.094;13.428;2024-02-26T19:00:04;101379.41;;;6.35;69.59
46045;BME280;31781;54.094;13.428;2024-02-26T19:06:08;101384.78;;;6.27;70.11
46045;BME280;31781;54.094;13.428;2024-02-26T19:12:10;101397.28;;;6.20;70.10
46045;BME280;31781;54.094;13.428;2024-02-26T19:18:13;101390.84;;;6.13;70.35
46045;BME280;31781;54.094;13.428;2024-02-26T19:24:15;101413.94;;;6.07;70.79
46045;BME280;31781;54.094;13.428;2024-02-26T19:30:17;101419.81;;;6.03;71.20
46045;BME280;31781;54.094;13.428;2024-02-26T19:36:20;101427.41;;;5.99;71.23
46045;BME280;31781;54.094;13.428;2024-02-26T19:42:22;101428.75;;;5.95;71.69
46045;BME280;31781;54.094;13.428;2024-02-26T19:48:24;101428.41;;;5.90;71.74
46045;BME280;31781;54.094;13.428;2024-02-26T19:54:27;101425.28;;;5.85;71.88
46045;BME280;31781;54.094;13.428;2024-02-26T20:00:28;101419.56;;;5.80;71.73
46045;BME280;31781;54.094;13.428;2024-02-26T20:06:30;101431.81;;;5.74;71.48
46045;BME280;31781;54.094;13.428;2024-02-26T20:12:33;101424.19;;;5.70;71.92
46045;BME280;31781;54.094;13.428;2024-02-26T20:18:35;101432.81;;;5.65;72.38
46045;BME280;31781;54.094;13.428;2024-02-26T20:24:37;101434.94;;;5.62;72.18
46045;BME280;31781;54.094;13.428;2024-02-26T20:30:40;101443.22;;;5.60;73.02
46045;BME280;31781;54.094;13.428;2024-02-26T20:36:42;101441.84;;;5.56;72.64
46045;BME280;31781;54.094;13.428;2024-02-26T20:42:44;101461.06;;;5.53;73.36
46045;BME280;31781;54.094;13.428;2024-02-26T20:48:47;101448.72;;;5.51;73.34
46045;BME280;31781;54.094;13.428;2024-02-26T20:54:48;101450.59;;;5.50;73.30
46045;BME280;31781;54.094;13.428;2024-02-26T21:00:50;101455.16;;;5.50;73.67
46045;BME280;31781;54.094;13.428;2024-02-26T21:06:53;101458.84;;;5.49;73.20
46045;BME280;31781;54.094;13.428;2024-02-26T21:12:55;101460.53;;;5.50;73.66
46045;BME280;31781;54.094;13.428;2024-02-26T21:18:57;101471.34;;;5.50;73.18
46045;BME280;31781;54.094;13.428;2024-02-26T21:25:00;101482.28;;;5.48;73.27
46045;BME280;31781;54.094;13.428;2024-02-26T21:31:01;101485.97;;;5.47;73.62
46045;BME280;31781;54.094;13.428;2024-02-26T21:37:03;101488.84;;;5.46;73.10
46045;BME280;31781;54.094;13.428;2024-02-26T21:43:06;101488.16;;;5.44;73.06
46045;BME280;31781;54.094;13.428;2024-02-26T21:49:08;101497.41;;;5.41;72.73
46045;BME280;31781;54.094;13.428;2024-02-26T21:55:10;101497.03;;;5.36;72.57
46045;BME280;31781;54.094;13.428;2024-02-26T22:01:13;101499.91;;;5.34;72.83
46045;BME280;31781;54.094;13.428;2024-02-26T22:07:15;101496.66;;;5.31;73.56
46045;BME280;31781;54.094;13.428;2024-02-26T22:13:17;101505.09;;;5.28;73.87
46045;BME280;31781;54.094;13.428;2024-02-26T22:19:20;101509.78;;;5.26;73.94
46045;BME280;31781;54.094;13.428;2024-02-26T22:25:22;101527.97;;;5.24;73.80
46045;BME280;31781;54.094;13.428;2024-02-26T22:31:24;101532.66;;;5.22;74.32
46045;BME280;31781;54.094;13.428;2024-02-26T22:37:27;101528.56;;;5.18;74.22
46045;BME280;31781;54.094;13.428;2024-02-26T22:43:28;101529.59;;;5.17;74.13
46045;BME280;31781;54.094;13.428;2024-02-26T22:49:30;101537.00;;;5.15;73.45
46045;BME280;31781;54.094;13.428;2024-02-26T22:55:33;101542.84;;;5.10;73.33
46045;BME280;31781;54.094;13.428;2024-02-26T23:01:35;101539.59;;;5.07;73.44
46045;BME280;31781;54.094;13.428;2024-02-26T23:07:36;101540.91;;;5.03;73.55
46045;BME280;31781;54.094;13.428;2024-02-26T23:13:40;101545.09;;;4.97;73.81
46045;BME280;31781;54.094;13.428;2024-02-26T23:19:41;101549.81;;;4.95;73.20
46045;BME280;31781;54.094;13.428;2024-02-26T23:25:43;101545.84;;;4.89;73.65
46045;BME280;31781;54.094;13.428;2024-02-26T23:31:46;101548.84;;;4.86;74.08
46045;BME280;31781;54.094;13.428;2024-02-26T23:37:47;101538.53;;;4.82;73.86
46045;BME280;31781;54.094;13.428;2024-02-26T23:43:49;101547.59;;;4.81;74.30
46045;BME280;31781;54.094;13.428;2024-02-26T23:49:52;101542.53;;;4.78;73.78
46045;BME280;31781;54.094;13.428;2024-02-26T23:55:54;101549.94;;;4.76;74.59
